Airfield :
LOGIN :

Register | Disclaimer

   EN    FR    IT 

 










Legend :    VFR   Marginal VFR   IFR   Intensive IFR   Very Intensive IFR
Visi :
Ceiling :
>= 8 km
>= 3000ft
5 to 8 km
1000 to 3000 ft
1500m to 5 km
500 to 1000 ft
800 to 1500m
200 to 500 ft
< 800m
< 200 ft
Symbols :   Thunderstorms  Fog  Heavy snow  Heavy precipitations  Wind > 20 kt
SIGMETs :     Misc.  Thunderstorms  Icing  Turbulence  Mountain Waves  Volcanic Ashes






- Airport Elevation : 51 ft
- IATA code : GWT


EDXW - Westerland-Sylt Island

CURRENT METAR :
  • 200420Z AUTO 02007KT 9999 // FEW092/// OVC130/// 04/01 Q1015 NRMK ATIS M

EXPIRED METARs :
  • 200350Z AUTO 02007KT 9999 // BKN098/// OVC130/// 04/02 Q1014 NRMK ATIS M
  • 200320Z AUTO 02007KT 9999 // SCT100/// OVC130/// 04/01 Q1014 NRMK ATIS M
  • 200250Z AUTO 02008KT 9999 // FEW100/// BKN120/// 04/01 Q1014 NRMK ATIS M
  • 200220Z AUTO 01007KT 9999 // BKN120/// 03/00 Q1013 NRMK ATIS M
  • 200150Z AUTO 01006KT 9999 // SCT120/// 03/01 Q1013 NRMK ATIS M
  • 200120Z AUTO 02007KT 9999 // OVC120/// 04/01 Q1013 NRMK ATIS M
  • 200050Z AUTO 02008KT 9999 // BKN120/// 04/01 Q1012 NRMK ATIS M
  • 200020Z AUTO 02009KT 9999 // FEW120/// 04/01 Q1012 NRMK ATIS M
  • 192350Z AUTO 01009KT 9999 // NCD 04/01 Q1012 NRMK ATIS M

Expired Forecast.



MET'MAP, your aeronautical weather chart ! - Copyright ORBIFLY December 2007 - Disclaimer

ORBIFLY MET'MAP TEAM :

Programming & Development : Alexandra Zaïnal
Original concept : Baudouin d'Aumeries
Technical & hardware support : Manuel Goepfert
Assistance : Marc-Olivier Méhu




SOURCES & CREDITS :

   NOAA